Piedmont, California
Current Conditions -  °F | °C
As of 11:53 AM on Wednesday 17 Dec 2014 (Local Time) from KOAK Reporting Station
Broken Clouds Broken Clouds  
Wind Chill: 55°   Ceiling: 4100
Heat Index: 55°   Visibility: 10mi
Dew Point: 51°   Wind: 9mph
Humidity: 86%   Direction: 140°SE
Pressure: 30.06"   Gusts: NA
Location:  37.82°N, 122.23°W
Report Text: KOAK 171953Z 14008KT 10SM FEW024 BKN041 BKN060 13/11 A3006 RMK AO2 SLP180 T01280106
Loading
Personal Weather Stations






























Interactive Weather Map New forecast layout! Learn more

10-Day Weather Forecast

Advertisements
Track Severe Weather on mobile